MSC Lisbon — A8LL9 — position and weather

sailwx.info

Track history (hours):
 
Tides and Currents Weather Stations Pressure Air Temp Water Temp Dewpoint Dewpoint Depression Visibility Wind Speed Wind Dir Waves Ship Positions

MSC Lisbon

Last reported at 2016-Feb-05 21:23 UTC. Time now 2016-Feb-06 20:37 UTC.
Position N 32°56' E 034°34'.

Length 336.7 m; beam 45.6 m; draft 15.3 m.

Type: Ship (hazmat cat A). MMSI: 636091276.

Date/timePositionNaut miles runAvg speedWind from/ knotsBaromVisibWave heightAir tempDewpointWater temp
2016-Feb-05 21:23N 32°56' E 034°34'1618.8
2016-Feb-05 20:33N 32°53' E 034°53'5 0.3
2016-Feb-05 01:18N 32°52' E 034°59'0 0.5
2016-Feb-05 00:26N 32°52' E 034°58'6 7.0
2016-Feb-04 23:33N 32°53' E 034°51'1919.3
2016-Feb-04 22:33N 32°57' E 034°28'2120.2
2016-Feb-04 21:32N 33°01' E 034°04'1919.4
2016-Feb-04 20:32N 32°49' E 033°46'2120.9
2016-Feb-04 19:32N 32°33' E 033°31'2020.4
2016-Feb-04 18:33N 32°17' E 033°15'  
Track history (hours):
 
Tides and Currents Weather Stations Pressure Air Temp Water Temp Dewpoint Dewpoint Depression Visibility Wind Speed Wind Dir Waves Ship Positions

MSC Lisbon

Last reported at 2016-Feb-05 21:23 UTC. Time now 2016-Feb-06 20:37 UTC.
Position N 32°56' E 034°34'.

Length 336.7 m; beam 45.6 m; draft 15.3 m.

Type: Ship (hazmat cat A). MMSI: 636091276.

Date/timePositionNaut miles runAvg speedWind from/ knotsBaromVisibWave heightAir tempDewpointWater temp
2016-Feb-05 21:23N 32°56' E 034°34'1618.8
2016-Feb-05 20:33N 32°53' E 034°53'5 0.3
2016-Feb-05 01:18N 32°52' E 034°59'0 0.5
2016-Feb-05 00:26N 32°52' E 034°58'6 7.0
2016-Feb-04 23:33N 32°53' E 034°51'1919.3
2016-Feb-04 22:33N 32°57' E 034°28'2120.2
2016-Feb-04 21:32N 33°01' E 034°04'1919.4
2016-Feb-04 20:32N 32°49' E 033°46'2120.9
2016-Feb-04 19:32N 32°33' E 033°31'2020.4
2016-Feb-04 18:33N 32°17' E 033°15'  

Dump ship's entire track history